Box Emma — V7WY6 — position and weather

sailwx.info

Track history (hours):
 
Tides and Currents Weather Stations Pressure Air Temp Water Temp Dewpoint Dewpoint Depression Visibility Wind Speed Wind Dir Waves Ship Positions

Box Emma

Last reported at 2015-Jun-27 04:24 UTC. Time now 2015-Jul-06 11:19 UTC.
Position N 35°38' E 015°19'.
Warning: this ship's position is 9 days out of date.

Length 294 m; draft 11.8 m.

Type: Ship. MMSI: 538004424.

Date/timePositionNaut miles runAvg speedWind from/ knotsBaromVisibWave heightAir tempDewpointWater temp
2015-Jun-27 04:24N 35°38' E 015°19'1618.6
2015-Jun-27 03:32N 35°42' E 015°00'1818.4
2015-Jun-27 02:34N 35°47' E 014°39'4 0.3
2015-Jun-26 13:13N 35°48' E 014°34'7 8.4
2015-Jun-26 12:23N 35°46' E 014°26'1518.7
2015-Jun-26 11:34N 35°56' E 014°11'1919.1
2015-Jun-26 10:33N 36°09' E 013°54'1918.6
2015-Jun-26 09:34N 36°22' E 013°37'1918.6
2015-Jun-26 08:33N 36°34' E 013°20'2018.1
2015-Jun-26 07:26N 36°48' E 013°02'1617.9
2015-Jun-26 06:33N 36°59' E 012°47'2018.0
2015-Jun-26 05:25N 37°13' E 012°29'4118.5
2015-Jun-26 03:11N 37°44' E 011°54'1618.8
2015-Jun-26 02:22N 37°58' E 011°47'1518.3
2015-Jun-26 01:33N 38°12' E 011°41'1817.9
2015-Jun-26 00:33N 38°29' E 011°34'1918.0
2015-Jun-25 23:29N 38°48' E 011°27'11318.2
2015-Jun-25 17:16N 40°35' E 010°40'15018.3
2015-Jun-25 09:06N 42°57' E 009°37'1018.4
2015-Jun-25 08:33N 43°06' E 009°31'1818.3
2015-Jun-25 07:33N 43°23' E 009°21'1818.0
2015-Jun-25 06:33N 43°39' E 009°11'1818.1
2015-Jun-25 05:33N 43°56' E 008°60'1818.4
2015-Jun-25 04:33N 44°12' E 008°49'1312.8
2015-Jun-25 03:33N 44°25' E 008°46'0 0.2
2015-Jun-25 02:33N 44°25' E 008°47'0 0.0
2015-Jun-25 01:26N 44°25' E 008°47'0 0.0
2015-Jun-25 00:31N 44°25' E 008°47'0 0.0
2015-Jun-24 23:28N 44°25' E 008°47'0 0.0
2015-Jun-24 22:32N 44°25' E 008°47'0 0.0
2015-Jun-24 21:31N 44°25' E 008°47'0 0.0
2015-Jun-24 20:31N 44°25' E 008°47'0 0.0
2015-Jun-24 19:33N 44°25' E 008°47'0 0.0
2015-Jun-24 18:33N 44°25' E 008°47'0 0.0
2015-Jun-24 17:33N 44°25' E 008°47'0 0.0
2015-Jun-24 16:32N 44°25' E 008°47'0 0.0
2015-Jun-24 15:33N 44°25' E 008°47'2 2.1
2015-Jun-24 14:33N 44°24' E 008°44'9 9.0
2015-Jun-24 13:34N 44°15' E 008°40'10 9.9
2015-Jun-24 12:33N 44°07' E 008°33'1010.5
2015-Jun-24 11:34N 43°58' E 008°25'1010.2
2015-Jun-24 10:33N 43°50' E 008°17'49 9.6
2015-Jun-24 05:27N 43°17' E 007°26'1111.6
2015-Jun-24 04:32N 43°10' E 007°15'1111.4
2015-Jun-24 03:32N 43°03' E 007°04'43113.5
2015-Jun-22 19:33N 38°11' E 000°06'0 0.2
2015-Jun-22 18:33N 38°11' E 000°06'1 0.5
2015-Jun-22 17:30N 38°11' E 000°07'1 0.8
2015-Jun-22 16:33N 38°12' E 000°08'1 1.0
2015-Jun-22 15:33N 38°12' E 000°09'1 0.9
2015-Jun-22 14:33N 38°13' E 000°08'1413.8
2015-Jun-22 13:34N 38°04' W 000°05'1919.3
2015-Jun-22 12:34N 37°48' W 000°19'1817.7
2015-Jun-22 11:33N 37°33' W 000°31'1615.6
2015-Jun-22 10:34N 37°23' W 000°46'1514.9
2015-Jun-22 09:33N 37°13' W 000°60'1514.8
2015-Jun-22 08:32N 37°03' W 001°14'1514.9
2015-Jun-22 07:33N 36°53' W 001°28'4214.1
2015-Jun-22 04:33N 36°25' W 002°07'1312.7
2015-Jun-22 03:33N 36°21' W 002°22'1413.7
2015-Jun-22 02:33N 36°19' W 002°39'12315.0
2015-Jun-21 18:22N 36°01' W 005°09'1316.0
2015-Jun-21 17:33N 35°57' W 005°25'7914.7
2015-Jun-21 12:11N 36°05' W 007°02'1314.7
2015-Jun-21 11:18N 36°08' W 007°18'2614.9
2015-Jun-21 09:33N 36°16' W 007°48'2215.0
2015-Jun-21 08:06N 36°20' W 008°15'814.6
2015-Jun-21 07:33N 36°22' W 008°24'1514.7
2015-Jun-21 06:34N 36°26' W 008°42'1514.4
2015-Jun-21 05:33N 36°30' W 008°59'1414.2
2015-Jun-21 04:33N 36°34' W 009°16'1414.2
2015-Jun-21 03:33N 36°44' W 009°29'1413.8
2015-Jun-21 02:33N 36°56' W 009°36'1514.8
2015-Jun-21 01:33N 37°11' W 009°40'1515.0
2015-Jun-21 00:33N 37°25' W 009°44'1515.4
2015-Jun-20 23:33N 37°40' W 009°48'1515.4
2015-Jun-20 22:33N 37°55' W 009°52'1515.3
2015-Jun-20 21:33N 38°10' W 009°57'1515.0
2015-Jun-20 20:33N 38°25' W 010°02'1514.7
2015-Jun-20 19:33N 38°39' W 010°06'1514.7
2015-Jun-20 18:33N 38°54' W 010°06'1514.7
2015-Jun-20 17:33N 39°09' W 010°06'1414.5
2015-Jun-20 16:33N 39°23' W 010°07'1514.6
2015-Jun-20 15:33N 39°38' W 010°08'1514.7
2015-Jun-20 14:33N 39°52' W 010°06'1515.1
2015-Jun-20 13:33N 40°07' W 010°07'1514.8
2015-Jun-20 12:33N 40°22' W 010°07'1514.9
2015-Jun-20 11:33N 40°37' W 010°06'1514.8
2015-Jun-20 10:33N 40°52' W 010°07'1515.1
2015-Jun-20 09:33N 41°07' W 010°07'1515.0
2015-Jun-20 08:33N 41°22' W 010°06'1514.9
2015-Jun-20 07:33N 41°37' W 010°07'1714.9
2015-Jun-20 06:26N 41°54' W 010°07'1414.8
2015-Jun-20 05:31N 42°07' W 010°06'1414.8
2015-Jun-20 04:33N 42°21' W 010°07'1514.6
2015-Jun-20 03:33N 42°36' W 010°06'1514.7
2015-Jun-20 02:33N 42°51' W 010°07'1614.4
2015-Jun-20 01:28N 43°06' W 010°08'23414.7
2015-Jun-19 09:30N 46°35' W 007°37'8814.6
2015-Jun-19 03:26N 47°53' W 006°36'1314.0
2015-Jun-19 02:32N 48°04' W 006°28'1514.7
2015-Jun-19 01:32N 48°18' W 006°18'1514.7
2015-Jun-19 00:32N 48°31' W 006°07'3115.7
2015-Jun-18 22:33N 48°56' W 005°40'1515.6
2015-Jun-18 21:33N 49°04' W 005°20'1815.5
2015-Jun-18 20:23N 49°13' W 004°55'9014.9
2015-Jun-18 14:20N 49°58' W 002°55'9013.0
2015-Jun-18 07:28N 49°43' W 000°38'1313.9
2015-Jun-18 06:33N 49°36' W 000°22'1313.0
2015-Jun-18 05:33N 49°31' W 000°03'9 9.0
2015-Jun-18 04:32N 49°27' E 000°10'0 0.0
2015-Jun-18 03:31N 49°27' E 000°10'0 0.0
2015-Jun-18 02:33N 49°27' E 000°10'0 0.0
2015-Jun-18 01:33N 49°27' E 000°10'0 0.0
2015-Jun-18 00:33N 49°27' E 000°10'0 0.0
2015-Jun-17 23:31N 49°27' E 000°10'0 0.0
2015-Jun-17 22:31N 49°27' E 000°10'0 0.0
2015-Jun-17 21:31N 49°27' E 000°10'0 0.0
2015-Jun-17 20:33N 49°27' E 000°10'0 0.0
2015-Jun-17 19:33N 49°27' E 000°10'0 0.0
2015-Jun-17 18:32N 49°27' E 000°10'0 0.0
2015-Jun-17 17:32N 49°27' E 000°10'0 0.0
2015-Jun-17 16:32N 49°27' E 000°10'0 0.0
2015-Jun-17 15:31N 49°27' E 000°10'0 0.0
2015-Jun-17 14:31N 49°27' E 000°10'0 0.0
2015-Jun-17 13:33N 49°27' E 000°10'0 0.0
2015-Jun-17 12:33N 49°27' E 000°10'0 0.5
2015-Jun-17 11:33N 49°27' E 000°09'9 9.2
2015-Jun-17 10:33N 49°31' W 000°04'7 7.5
2015-Jun-17 09:33N 49°38' W 000°09'1211.5
2015-Jun-17 08:34N 49°49' W 000°09'1612.8
2015-Jun-17 07:20N 50°05' W 000°10'2714.5
2015-Jun-17 05:29N 50°29' E 000°07'1616.8
2015-Jun-17 04:33N 50°34' E 000°30'  
Track history (hours):
 
Tides and Currents Weather Stations Pressure Air Temp Water Temp Dewpoint Dewpoint Depression Visibility Wind Speed Wind Dir Waves Ship Positions

Box Emma

Last reported at 2015-Jun-27 04:24 UTC. Time now 2015-Jul-06 11:19 UTC.
Position N 35°38' E 015°19'.
Warning: this ship's position is 9 days out of date.

Length 294 m; draft 11.8 m.

Type: Ship. MMSI: 538004424.

Date/timePositionNaut miles runAvg speedWind from/ knotsBaromVisibWave heightAir tempDewpointWater temp
2015-Jun-27 04:24N 35°38' E 015°19'1618.6
2015-Jun-27 03:32N 35°42' E 015°00'1818.4
2015-Jun-27 02:34N 35°47' E 014°39'4 0.3
2015-Jun-26 13:13N 35°48' E 014°34'7 8.4
2015-Jun-26 12:23N 35°46' E 014°26'1518.7
2015-Jun-26 11:34N 35°56' E 014°11'1919.1
2015-Jun-26 10:33N 36°09' E 013°54'1918.6
2015-Jun-26 09:34N 36°22' E 013°37'1918.6
2015-Jun-26 08:33N 36°34' E 013°20'2018.1
2015-Jun-26 07:26N 36°48' E 013°02'1617.9
2015-Jun-26 06:33N 36°59' E 012°47'2018.0
2015-Jun-26 05:25N 37°13' E 012°29'4118.5
2015-Jun-26 03:11N 37°44' E 011°54'1618.8
2015-Jun-26 02:22N 37°58' E 011°47'1518.3
2015-Jun-26 01:33N 38°12' E 011°41'1817.9
2015-Jun-26 00:33N 38°29' E 011°34'1918.0
2015-Jun-25 23:29N 38°48' E 011°27'11318.2
2015-Jun-25 17:16N 40°35' E 010°40'15018.3
2015-Jun-25 09:06N 42°57' E 009°37'1018.4
2015-Jun-25 08:33N 43°06' E 009°31'1818.3
2015-Jun-25 07:33N 43°23' E 009°21'1818.0
2015-Jun-25 06:33N 43°39' E 009°11'1818.1
2015-Jun-25 05:33N 43°56' E 008°60'1818.4
2015-Jun-25 04:33N 44°12' E 008°49'1312.8
2015-Jun-25 03:33N 44°25' E 008°46'0 0.2
2015-Jun-25 02:33N 44°25' E 008°47'0 0.0
2015-Jun-25 01:26N 44°25' E 008°47'0 0.0
2015-Jun-25 00:31N 44°25' E 008°47'0 0.0
2015-Jun-24 23:28N 44°25' E 008°47'0 0.0
2015-Jun-24 22:32N 44°25' E 008°47'0 0.0
2015-Jun-24 21:31N 44°25' E 008°47'0 0.0
2015-Jun-24 20:31N 44°25' E 008°47'0 0.0
2015-Jun-24 19:33N 44°25' E 008°47'0 0.0
2015-Jun-24 18:33N 44°25' E 008°47'0 0.0
2015-Jun-24 17:33N 44°25' E 008°47'0 0.0
2015-Jun-24 16:32N 44°25' E 008°47'0 0.0
2015-Jun-24 15:33N 44°25' E 008°47'2 2.1
2015-Jun-24 14:33N 44°24' E 008°44'9 9.0
2015-Jun-24 13:34N 44°15' E 008°40'10 9.9
2015-Jun-24 12:33N 44°07' E 008°33'1010.5
2015-Jun-24 11:34N 43°58' E 008°25'1010.2
2015-Jun-24 10:33N 43°50' E 008°17'49 9.6
2015-Jun-24 05:27N 43°17' E 007°26'1111.6
2015-Jun-24 04:32N 43°10' E 007°15'1111.4
2015-Jun-24 03:32N 43°03' E 007°04'43113.5
2015-Jun-22 19:33N 38°11' E 000°06'0 0.2
2015-Jun-22 18:33N 38°11' E 000°06'1 0.5
2015-Jun-22 17:30N 38°11' E 000°07'1 0.8
2015-Jun-22 16:33N 38°12' E 000°08'1 1.0
2015-Jun-22 15:33N 38°12' E 000°09'1 0.9
2015-Jun-22 14:33N 38°13' E 000°08'1413.8
2015-Jun-22 13:34N 38°04' W 000°05'1919.3
2015-Jun-22 12:34N 37°48' W 000°19'1817.7
2015-Jun-22 11:33N 37°33' W 000°31'1615.6
2015-Jun-22 10:34N 37°23' W 000°46'1514.9
2015-Jun-22 09:33N 37°13' W 000°60'1514.8
2015-Jun-22 08:32N 37°03' W 001°14'1514.9
2015-Jun-22 07:33N 36°53' W 001°28'4214.1
2015-Jun-22 04:33N 36°25' W 002°07'1312.7
2015-Jun-22 03:33N 36°21' W 002°22'1413.7
2015-Jun-22 02:33N 36°19' W 002°39'12315.0
2015-Jun-21 18:22N 36°01' W 005°09'1316.0
2015-Jun-21 17:33N 35°57' W 005°25'7914.7
2015-Jun-21 12:11N 36°05' W 007°02'1314.7
2015-Jun-21 11:18N 36°08' W 007°18'2614.9
2015-Jun-21 09:33N 36°16' W 007°48'2215.0
2015-Jun-21 08:06N 36°20' W 008°15'814.6
2015-Jun-21 07:33N 36°22' W 008°24'1514.7
2015-Jun-21 06:34N 36°26' W 008°42'1514.4
2015-Jun-21 05:33N 36°30' W 008°59'1414.2
2015-Jun-21 04:33N 36°34' W 009°16'1414.2
2015-Jun-21 03:33N 36°44' W 009°29'1413.8
2015-Jun-21 02:33N 36°56' W 009°36'1514.8
2015-Jun-21 01:33N 37°11' W 009°40'1515.0
2015-Jun-21 00:33N 37°25' W 009°44'1515.4
2015-Jun-20 23:33N 37°40' W 009°48'1515.4
2015-Jun-20 22:33N 37°55' W 009°52'1515.3
2015-Jun-20 21:33N 38°10' W 009°57'1515.0
2015-Jun-20 20:33N 38°25' W 010°02'1514.7
2015-Jun-20 19:33N 38°39' W 010°06'1514.7
2015-Jun-20 18:33N 38°54' W 010°06'1514.7
2015-Jun-20 17:33N 39°09' W 010°06'1414.5
2015-Jun-20 16:33N 39°23' W 010°07'1514.6
2015-Jun-20 15:33N 39°38' W 010°08'1514.7
2015-Jun-20 14:33N 39°52' W 010°06'1515.1
2015-Jun-20 13:33N 40°07' W 010°07'1514.8
2015-Jun-20 12:33N 40°22' W 010°07'1514.9
2015-Jun-20 11:33N 40°37' W 010°06'1514.8
2015-Jun-20 10:33N 40°52' W 010°07'1515.1
2015-Jun-20 09:33N 41°07' W 010°07'1515.0
2015-Jun-20 08:33N 41°22' W 010°06'1514.9
2015-Jun-20 07:33N 41°37' W 010°07'1714.9
2015-Jun-20 06:26N 41°54' W 010°07'1414.8
2015-Jun-20 05:31N 42°07' W 010°06'1414.8
2015-Jun-20 04:33N 42°21' W 010°07'1514.6
2015-Jun-20 03:33N 42°36' W 010°06'1514.7
2015-Jun-20 02:33N 42°51' W 010°07'1614.4
2015-Jun-20 01:28N 43°06' W 010°08'23414.7
2015-Jun-19 09:30N 46°35' W 007°37'8814.6
2015-Jun-19 03:26N 47°53' W 006°36'1314.0
2015-Jun-19 02:32N 48°04' W 006°28'1514.7
2015-Jun-19 01:32N 48°18' W 006°18'1514.7
2015-Jun-19 00:32N 48°31' W 006°07'3115.7
2015-Jun-18 22:33N 48°56' W 005°40'1515.6
2015-Jun-18 21:33N 49°04' W 005°20'1815.5
2015-Jun-18 20:23N 49°13' W 004°55'9014.9
2015-Jun-18 14:20N 49°58' W 002°55'9013.0
2015-Jun-18 07:28N 49°43' W 000°38'1313.9
2015-Jun-18 06:33N 49°36' W 000°22'1313.0
2015-Jun-18 05:33N 49°31' W 000°03'9 9.0
2015-Jun-18 04:32N 49°27' E 000°10'0 0.0
2015-Jun-18 03:31N 49°27' E 000°10'0 0.0
2015-Jun-18 02:33N 49°27' E 000°10'0 0.0
2015-Jun-18 01:33N 49°27' E 000°10'0 0.0
2015-Jun-18 00:33N 49°27' E 000°10'0 0.0
2015-Jun-17 23:31N 49°27' E 000°10'0 0.0
2015-Jun-17 22:31N 49°27' E 000°10'0 0.0
2015-Jun-17 21:31N 49°27' E 000°10'0 0.0
2015-Jun-17 20:33N 49°27' E 000°10'0 0.0
2015-Jun-17 19:33N 49°27' E 000°10'0 0.0
2015-Jun-17 18:32N 49°27' E 000°10'0 0.0
2015-Jun-17 17:32N 49°27' E 000°10'0 0.0
2015-Jun-17 16:32N 49°27' E 000°10'0 0.0
2015-Jun-17 15:31N 49°27' E 000°10'0 0.0
2015-Jun-17 14:31N 49°27' E 000°10'0 0.0
2015-Jun-17 13:33N 49°27' E 000°10'0 0.0
2015-Jun-17 12:33N 49°27' E 000°10'0 0.5
2015-Jun-17 11:33N 49°27' E 000°09'9 9.2
2015-Jun-17 10:33N 49°31' W 000°04'7 7.5
2015-Jun-17 09:33N 49°38' W 000°09'1211.5
2015-Jun-17 08:34N 49°49' W 000°09'1612.8
2015-Jun-17 07:20N 50°05' W 000°10'2714.5
2015-Jun-17 05:29N 50°29' E 000°07'1616.8
2015-Jun-17 04:33N 50°34' E 000°30'  

Dump ship's entire track history